Nearby METAR Reports

 

KORH - Worcester, Massachusetts, USA
Distance from station: NW 4mi, 7km
Updated: Sat, 23-Jun-2018 6:54pm EDT
Fog, Overcast
Fog, Overcast
 Wind from NNE
Wind: NNE 6 mph , 9 km/h
Temperature: 55°F , 13°C
Dew Point: 55°F , 13°C
Humidity: 100%
Barometer: 29.85 inHg , 1010.8 hPa
Summary: Fog
Clouds: Overcast
Visibility: 1/4 mile , 0.4 km
Cloud details: Overcast 200 ft
2018/06/23 22:54 KORH 232254Z 03005KT 1/4SM R11/6000VP6000FT FG VV002 13/13 A2985 RMK AO2 SLP110 T01330133
KBOS - Boston, Massachusetts, USA
Distance from station: ENE 42mi, 68km
Updated: Sat, 23-Jun-2018 7:06pm EDT
Light drizzle, Mist, Overcast
Light drizzle, Mist, Overcast
 Wind from NNE
Wind: NNE 10 mph , 17 km/h
Temperature: 61°F , 16°C
Dew Point: 55°F , 13°C
Humidity: 83%
Barometer: 29.85 inHg , 1010.8 hPa
Summary: Light drizzle, Mist
Clouds: Overcast
Visibility: 2 miles , 3 km
Cloud details: Mostly cloudy 700 ft
Overcast 1200 ft
2018/06/23 23:06 KBOS 232306Z 03009KT 2SM -DZ BR BKN007 OVC012 16/13 A2985 RMK AO2 P0000 T01560133
 
KCQX - Chatham, Massachusetts, USA
Distance from station: SE 102mi, 164km
Updated: Sat, 23-Jun-2018 7:09pm EDT
Fog, Overcast
Fog, Overcast
 Wind from NNE
Wind: NNE 5 mph , 7 km/h
Temperature: 61°F , 16°C
Dew Point: 61°F , 16°C
Humidity: 100%
Barometer: 29.81 inHg , 1009.5 hPa
Summary: Fog
Clouds: Overcast
Visibility: 1/4 mile , 0.4 km
Cloud details: Overcast 200 ft
2018/06/23 23:09 KCQX 232309Z AUTO 03004KT 1/4SM FG VV002 16/16 A2981 RMK AO2 T01610156 TSNO
KMVY - Marthas Vineyard, Massachusetts, USA
Distance from station: SE 84mi, 135km
Updated: Sat, 23-Jun-2018 6:59pm EDT
Fog, Overcast
Fog, Overcast
 Wind from NE
Wind: NE 3 mph , 6 km/h
Temperature: 63°F , 17°C
Dew Point: 63°F , 17°C
Humidity: 100%
Barometer: 29.81 inHg , 1009.5 hPa
Summary: Fog
Clouds: Overcast
Visibility: 1/4 mile , 0.4 km
Cloud details: Overcast 200 ft
2018/06/23 22:59 KMVY 232259Z 04003KT 1/4SM R24/2000V2200FT FG VV002 17/17 A2981 RMK AO2 T01720172
 
KPVC - Provincetown, Massachusetts, USA
Distance from station: NNW 85mi, 136km
Updated: Sat, 23-Jun-2018 6:56pm EDT
Light rain, Fog, Overcast
Light rain, Fog, Overcast
 Wind from ENE
Wind: ENE 8 mph , 13 km/h
Temperature: 61°F , 16°C
Dew Point: 61°F , 16°C
Humidity: 100%
Barometer: 29.82 inHg , 1009.8 hPa
Summary: Light rain, Fog
Clouds: Overcast
Visibility: 1/2 mile , 0.8 km
Cloud details: Overcast 300 ft
2018/06/23 22:56 KPVC 232256Z AUTO 07007KT 1/2SM -RA FG OVC003 16/16 A2982 RMK AO2 RAB14 SLP099 P0000 T01560156
KAQW - Savoy, Massachusetts, USA
Distance from station: NNW 66mi, 106km
Updated: Sat, 23-Jun-2018 6:52pm EDT
Overcast
Overcast
 Wind from ESE
Wind: ESE 12 mph , 19 km/h
Temperature: 57°F , 14°C
Dew Point: 54°F , 12°C
Humidity: 88%
Barometer: 29.85 inHg , 1010.8 hPa
Clouds: Overcast
Visibility: 10 miles , 16 km
Cloud details: Overcast 2000 ft
2018/06/23 22:52 KAQW 232252Z AUTO 11010KT 10SM OVC020 14/12 A2985 RMK AO2 SLP107 T01440117
 
KIZG - Fryeburg, Maine, USA
Distance from station: NNE 133mi, 214km
Updated: Sat, 23-Jun-2018 7:23pm EDT
Rain, Mist, Overcast
Rain, Mist, Overcast
 Wind from SSE
Wind: SSE 5 mph , 7 km/h
Temperature: 52°F , 11°C
Dew Point: 52°F , 11°C
Humidity: 100%
Barometer: 29.90 inHg , 1012.5 hPa
Summary: Rain, Mist
Clouds: Overcast
Visibility: 2 miles , 3 km
Cloud details: Few Clouds 500 ft
Partly cloudy 2500 ft
Overcast 3600 ft
2018/06/23 23:23 KIZG 232323Z AUTO 16004KT 2SM RA BR FEW005 SCT025 OVC036 11/11 A2990 RMK AO2 P0001 T01110111
KMWN - Mt Washington, New Hampshire, USA
Distance from station: NNE 146mi, 234km
Updated: Sat, 23-Jun-2018 6:51pm EDT
Rain, Fog, Overcast
Rain, Fog, Overcast
 Wind from SSW
Wind: SSW 18 mph , 30 km/h
Temperature: 48°F , 9°C
Wind Chill: 41°F , 5°C
Dew Point: 48°F , 9°C
Humidity: 100%
Summary: Rain, Fog
Clouds: Overcast
Visibility: 1/16 mile , 0.1 km
Cloud details: Overcast 100 ft
2018/06/23 22:51 KMWN 232251Z 21016KT 1/16SM RA FG VV001 09/09 RMK
 
KBML - Berlin, New Hampshire, USA
Distance from station: NNE 160mi, 257km
Updated: Sat, 23-Jun-2018 6:52pm EDT
Light rain, Overcast
Light rain, Overcast
 Wind from calm
Wind: Calm
Temperature: 55°F , 13°C
Dew Point: 54°F , 12°C
Humidity: 94%
Barometer: 29.86 inHg , 1011.2 hPa
Summary: Light rain
Clouds: Overcast
Visibility: 7 miles , 11 km
Cloud details: Mostly cloudy 3100 ft
Mostly cloudy 8000 ft
Overcast 12000 ft
2018/06/23 22:52 KBML 232252Z AUTO 00000KT 7SM -RA BKN031 BKN080 OVC120 13/12 A2986 RMK AO2 SLP115 P0007 T01280117